createdAt,value
2017-05-19T00:01:20.371Z,99.90
2017-05-19T00:03:49.615Z,99.90
2017-05-19T00:06:17.899Z,99.90
2017-05-19T00:08:46.264Z,99.90
2017-05-19T00:11:14.581Z,99.90
2017-05-19T00:13:43.716Z,99.90
2017-05-19T00:16:13.168Z,99.90
2017-05-19T00:18:41.451Z,99.90
2017-05-19T00:21:09.727Z,99.90
2017-05-19T00:23:38.100Z,99.90
2017-05-19T00:26:06.387Z,99.90
2017-05-19T00:28:34.762Z,99.90
2017-05-19T00:31:03.345Z,99.90
2017-05-19T00:33:31.636Z,99.90
2017-05-19T00:35:59.916Z,99.90
2017-05-19T00:38:28.312Z,99.90
2017-05-19T00:40:57.376Z,99.90
2017-05-19T00:43:25.753Z,99.90
2017-05-19T00:45:54.132Z,99.90
2017-05-19T00:48:22.515Z,99.90
2017-05-19T00:50:50.799Z,99.90
2017-05-19T00:53:19.124Z,99.90
2017-05-19T00:55:47.404Z,99.90
2017-05-19T00:58:15.720Z,99.90
2017-05-19T01:00:44.253Z,99.90
2017-05-19T01:03:13.276Z,99.90
2017-05-19T01:05:41.571Z,99.90
2017-05-19T01:08:10.359Z,99.90
2017-05-19T01:10:38.643Z,99.90
2017-05-19T01:13:06.924Z,99.90
2017-05-19T01:15:35.296Z,99.90
2017-05-19T01:18:03.576Z,99.90
2017-05-19T01:20:31.954Z,99.90
2017-05-19T01:23:00.539Z,99.90
2017-05-19T01:25:28.961Z,99.90
2017-05-19T01:27:57.977Z,99.90
2017-05-19T01:30:26.492Z,99.90
2017-05-19T01:32:54.774Z,99.90
2017-05-19T01:35:23.116Z,99.90
2017-05-19T01:37:51.776Z,99.90
2017-05-19T01:40:20.828Z,99.90
2017-05-19T01:42:49.212Z,99.90
2017-05-19T01:45:17.540Z,99.90
2017-05-19T01:47:45.866Z,99.90
2017-05-19T01:50:14.252Z,99.90
2017-05-19T01:52:42.625Z,99.90
2017-05-19T01:55:11.001Z,99.90
2017-05-19T01:57:39.312Z,99.90
2017-05-19T02:00:08.580Z,99.90
2017-05-19T02:02:36.957Z,99.90
2017-05-19T02:05:05.336Z,99.90
2017-05-19T02:07:33.647Z,99.90
2017-05-19T02:10:02.051Z,99.90
2017-05-19T02:12:31.083Z,99.90
2017-05-19T02:14:59.604Z,99.90
2017-05-19T02:17:27.889Z,99.90
2017-05-19T02:19:56.937Z,99.90
2017-05-19T02:22:25.314Z,99.90
2017-05-19T02:24:53.628Z,99.90
2017-05-19T02:27:22.691Z,99.90
2017-05-19T02:29:50.971Z,99.90
2017-05-19T02:32:19.312Z,99.90
2017-05-19T02:34:47.595Z,99.90
2017-05-19T02:37:15.904Z,99.90
2017-05-19T02:39:44.275Z,99.90
2017-05-19T02:42:12.652Z,99.90
2017-05-19T02:44:41.032Z,99.90
2017-05-19T02:47:09.336Z,99.90
2017-05-19T02:49:37.616Z,99.90
2017-05-19T02:52:05.968Z,99.90
2017-05-19T02:54:34.445Z,99.90
2017-05-19T02:57:02.719Z,99.90
2017-05-19T02:59:31.100Z,99.90
2017-05-19T03:01:59.480Z,99.90
2017-05-19T03:04:27.764Z,99.90
2017-05-19T03:06:56.044Z,99.90
2017-05-19T03:09:24.413Z,99.90
2017-05-19T03:11:52.791Z,99.90
2017-05-19T03:14:21.093Z,99.90
2017-05-19T03:16:49.403Z,99.90
2017-05-19T03:19:18.416Z,99.90
2017-05-19T03:21:46.724Z,99.90
2017-05-19T03:24:15.048Z,99.90
2017-05-19T03:26:44.093Z,99.90
2017-05-19T03:29:12.467Z,99.90
2017-05-19T03:31:41.056Z,99.90
2017-05-19T03:34:09.431Z,99.90
2017-05-19T03:36:37.811Z,99.90
2017-05-19T03:39:06.188Z,99.90
2017-05-19T03:41:34.492Z,99.90
2017-05-19T03:44:02.765Z,99.90
2017-05-19T03:46:31.169Z,99.90
2017-05-19T03:48:59.448Z,99.90
2017-05-19T03:51:27.724Z,99.90
2017-05-19T03:53:56.039Z,99.90
2017-05-19T03:56:24.356Z,99.90
2017-05-19T03:58:52.734Z,99.90
2017-05-19T04:01:21.043Z,99.90
2017-05-19T04:03:49.353Z,99.90
2017-05-19T04:06:17.659Z,99.90
2017-05-19T04:08:45.982Z,99.90
2017-05-19T04:11:15.032Z,99.90
2017-05-19T04:13:43.416Z,99.80
2017-05-19T04:16:11.730Z,99.80
2017-05-19T04:18:40.748Z,99.80
2017-05-19T04:21:09.025Z,99.40
2017-05-19T04:23:38.265Z,99.50
2017-05-19T04:26:06.551Z,98.70
2017-05-19T04:28:34.929Z,98.20
2017-05-19T04:31:03.244Z,97.00
2017-05-19T04:33:31.587Z,96.30
2017-05-19T04:35:59.964Z,96.50
2017-05-19T04:38:28.292Z,95.80
2017-05-19T04:40:57.308Z,95.40
2017-05-19T04:43:25.579Z,95.00
2017-05-19T04:45:53.907Z,94.90
2017-05-19T04:48:22.272Z,94.60
2017-05-19T04:50:50.649Z,93.90
2017-05-19T04:53:18.967Z,93.40
2017-05-19T04:55:47.979Z,93.40
2017-05-19T04:58:16.305Z,92.60
2017-05-19T05:00:44.988Z,92.40
2017-05-19T05:03:13.369Z,92.40
2017-05-19T05:05:41.650Z,92.40
2017-05-19T05:08:09.971Z,91.90
2017-05-19T05:10:38.994Z,91.90
2017-05-19T05:13:07.272Z,92.00
2017-05-19T05:15:35.885Z,91.50
2017-05-19T05:18:04.158Z,91.60
2017-05-19T05:20:32.536Z,91.60
2017-05-19T05:23:00.924Z,91.40
2017-05-19T05:25:29.296Z,91.40
2017-05-19T05:27:57.675Z,90.90
2017-05-19T05:30:25.983Z,90.80
2017-05-19T05:32:55.044Z,90.90
2017-05-19T05:35:23.431Z,91.20
2017-05-19T05:37:51.767Z,91.50
2017-05-19T05:40:20.057Z,91.30
2017-05-19T05:42:48.348Z,90.50
2017-05-19T05:45:16.876Z,90.20
2017-05-19T05:47:45.898Z,90.30
2017-05-19T05:50:51.816Z,89.50
2017-05-19T05:53:20.175Z,88.00
2017-05-19T05:55:48.553Z,87.20
2017-05-19T05:58:16.924Z,87.00
2017-05-19T06:00:45.209Z,87.20
2017-05-19T06:03:13.690Z,84.10
2017-05-19T06:05:42.012Z,85.30
2017-05-19T06:08:10.351Z,85.20
2017-05-19T06:10:38.720Z,83.80
2017-05-19T06:13:07.109Z,83.60
2017-05-19T06:15:35.480Z,83.40
2017-05-19T06:18:03.764Z,83.30
2017-05-19T06:20:32.135Z,83.10
2017-05-19T06:23:00.516Z,79.70
2017-05-19T06:25:28.791Z,80.00
2017-05-19T06:27:57.249Z,80.90
2017-05-19T06:30:25.531Z,81.50
2017-05-19T06:32:53.808Z,80.90
2017-05-19T06:35:22.224Z,80.00
2017-05-19T06:37:50.584Z,80.20
2017-05-19T06:40:18.869Z,80.50
2017-05-19T06:42:47.345Z,79.20
2017-05-19T06:45:15.628Z,79.90
2017-05-19T06:47:44.003Z,80.90
2017-05-19T06:50:12.528Z,79.90
2017-05-19T06:52:40.808Z,79.40
2017-05-19T06:55:09.151Z,80.70
2017-05-19T06:57:37.467Z,80.10
2017-05-19T07:00:05.743Z,80.60
2017-05-19T07:02:34.020Z,80.30
2017-05-19T07:05:02.348Z,78.30
2017-05-19T07:07:30.779Z,78.90
2017-05-19T07:09:59.061Z,79.50
2017-05-19T07:12:27.540Z,79.60
2017-05-19T07:14:55.923Z,79.20
2017-05-19T07:17:24.292Z,77.40
2017-05-19T07:19:52.598Z,77.10
2017-05-19T07:22:20.881Z,76.10
2017-05-19T07:24:49.440Z,75.00
2017-05-19T07:27:17.825Z,75.00
2017-05-19T07:29:46.202Z,74.30
2017-05-19T07:32:14.516Z,74.40
2017-05-19T07:34:42.800Z,74.70
2017-05-19T07:37:11.080Z,74.70
2017-05-19T07:39:39.513Z,74.50
2017-05-19T07:42:07.798Z,73.70
2017-05-19T07:44:36.080Z,73.80
2017-05-19T07:47:04.440Z,71.40
2017-05-19T07:49:32.832Z,71.80
2017-05-19T07:52:01.112Z,72.20
2017-05-19T07:54:29.426Z,72.60
2017-05-19T07:56:57.704Z,71.80
2017-05-19T07:59:26.436Z,70.50
2017-05-19T08:01:54.716Z,72.20
2017-05-19T08:04:22.997Z,71.90
2017-05-19T08:06:51.400Z,72.60
2017-05-19T08:09:19.676Z,72.70
2017-05-19T08:11:48.036Z,72.00
2017-05-19T08:14:16.409Z,73.20
2017-05-19T08:16:44.689Z,74.00
2017-05-19T08:19:13.067Z,74.20
2017-05-19T08:21:41.449Z,73.10
2017-05-19T08:24:09.725Z,74.00
2017-05-19T08:26:38.101Z,75.20
2017-05-19T08:29:06.426Z,75.90
2017-05-19T08:31:34.711Z,74.50
2017-05-19T08:34:02.988Z,73.50
2017-05-19T08:36:31.296Z,73.10
2017-05-19T08:38:59.577Z,73.90
2017-05-19T08:41:28.068Z,73.00
2017-05-19T08:43:56.349Z,73.50
2017-05-19T08:46:24.724Z,74.20
2017-05-19T08:48:53.105Z,73.70
2017-05-19T08:51:21.584Z,74.20
2017-05-19T08:53:49.896Z,74.90
2017-05-19T08:56:18.177Z,73.60
2017-05-19T08:58:46.487Z,75.40
2017-05-19T09:01:14.824Z,75.50
2017-05-19T09:03:43.100Z,74.90
2017-05-19T09:06:11.380Z,73.90
2017-05-19T09:08:39.900Z,73.90
2017-05-19T09:11:08.277Z,74.40
2017-05-19T09:13:36.648Z,75.50
2017-05-19T09:16:04.957Z,75.40
2017-05-19T09:18:33.239Z,75.20
2017-05-19T09:21:01.586Z,75.10
2017-05-19T09:23:29.900Z,73.70
2017-05-19T09:25:58.185Z,74.80
2017-05-19T09:28:26.489Z,75.90
2017-05-19T09:30:54.896Z,72.50
2017-05-19T09:33:23.177Z,74.10
2017-05-19T09:35:51.464Z,74.70
2017-05-19T09:38:20.041Z,73.20
2017-05-19T09:40:48.427Z,72.60
2017-05-19T09:43:16.776Z,74.60
2017-05-19T09:45:45.257Z,74.20
2017-05-19T09:48:13.636Z,74.30
2017-05-19T09:50:41.912Z,73.30
2017-05-19T09:53:10.227Z,72.50
2017-05-19T09:55:38.572Z,72.20
2017-05-19T09:58:06.950Z,73.90
2017-05-19T10:00:35.423Z,74.20
2017-05-19T10:03:03.704Z,74.10
2017-05-19T10:05:31.979Z,77.20
2017-05-19T10:08:00.664Z,75.60
2017-05-19T10:10:28.949Z,74.10
2017-05-19T10:12:57.326Z,75.00
2017-05-19T10:15:25.648Z,75.90
2017-05-19T10:17:53.992Z,77.30
2017-05-19T10:20:22.365Z,75.00
2017-05-19T10:22:51.048Z,74.50
2017-05-19T10:25:19.327Z,74.60
2017-05-19T10:27:47.608Z,75.60
2017-05-19T10:30:16.096Z,76.70
2017-05-19T10:32:44.477Z,78.30
2017-05-19T10:35:12.857Z,78.40
2017-05-19T10:37:41.335Z,76.60
2017-05-19T10:40:09.612Z,77.20
2017-05-19T10:42:37.892Z,76.80
2017-05-19T10:45:06.204Z,78.00
2017-05-19T10:47:34.508Z,80.90
2017-05-19T10:50:02.796Z,81.80
2017-05-19T10:52:31.200Z,80.60
2017-05-19T10:54:59.480Z,81.40
2017-05-19T10:57:27.803Z,80.60
2017-05-19T10:59:56.140Z,81.80
2017-05-19T11:02:24.512Z,79.80
2017-05-19T11:04:52.830Z,81.50
2017-05-19T11:07:21.134Z,82.00
2017-05-19T11:09:49.443Z,79.80
2017-05-19T11:12:17.731Z,80.10
2017-05-19T11:14:46.147Z,77.50
2017-05-19T11:17:14.485Z,77.90
2017-05-19T11:19:42.768Z,75.40
2017-05-19T11:22:11.088Z,76.30
2017-05-19T11:24:39.417Z,76.50
2017-05-19T11:27:07.788Z,75.10
2017-05-19T11:29:36.128Z,75.20
2017-05-19T11:32:04.409Z,78.10
2017-05-19T11:34:32.729Z,77.90
2017-05-19T11:37:00.259Z,78.10
2017-05-19T11:39:28.540Z,78.10
2017-05-19T11:41:56.844Z,76.50
2017-05-19T11:44:25.175Z,74.80
2017-05-19T11:46:53.461Z,76.20
2017-05-19T11:49:21.737Z,76.40
2017-05-19T11:51:50.059Z,75.80
2017-05-19T11:54:18.485Z,77.70
2017-05-19T11:56:46.828Z,78.30
2017-05-19T11:59:15.149Z,78.40
2017-05-19T12:01:43.471Z,75.50
2017-05-19T12:04:11.756Z,76.00
2017-05-19T12:06:40.070Z,76.70
2017-05-19T12:09:08.372Z,74.30
2017-05-19T12:11:42.108Z,74.90
2017-05-19T12:14:10.497Z,74.50
2017-05-19T12:16:38.786Z,74.10
2017-05-19T12:19:07.148Z,74.20
2017-05-19T12:21:35.529Z,76.20
2017-05-19T12:24:03.813Z,76.60
2017-05-19T12:26:32.285Z,77.10
2017-05-19T12:29:00.668Z,77.80
2017-05-19T12:31:28.951Z,75.50
2017-05-19T12:33:57.273Z,75.00
2017-05-19T12:36:25.553Z,77.10
2017-05-19T12:38:53.835Z,76.60
2017-05-19T12:41:21.475Z,76.80
2017-05-19T12:43:49.764Z,78.10
2017-05-19T12:46:18.049Z,78.70
2017-05-19T12:48:46.369Z,78.20
2017-05-19T12:51:14.656Z,79.00
2017-05-19T12:53:42.939Z,79.30
2017-05-19T12:56:11.265Z,78.70
2017-05-19T12:58:39.561Z,79.10
2017-05-19T13:01:07.850Z,77.80
2017-05-19T13:03:36.166Z,79.60
2017-05-19T13:06:04.452Z,79.10
2017-05-19T13:08:32.761Z,79.10
2017-05-19T13:11:01.047Z,79.80
2017-05-19T13:13:29.356Z,80.20
2017-05-19T13:15:57.636Z,80.70
2017-05-19T13:18:25.949Z,79.70
2017-05-19T13:20:54.229Z,80.10
2017-05-19T13:23:21.776Z,79.90
2017-05-19T13:25:50.060Z,80.00
2017-05-19T13:28:18.345Z,80.50
2017-05-19T13:30:46.088Z,80.30
2017-05-19T13:33:14.365Z,81.50
2017-05-19T13:35:42.648Z,82.30
2017-05-19T13:38:11.812Z,82.30
2017-05-19T13:40:40.100Z,83.60
2017-05-19T13:43:08.381Z,82.90
2017-05-19T13:45:36.697Z,81.50
2017-05-19T13:48:05.025Z,83.70
2017-05-19T13:50:33.320Z,83.30
2017-05-19T13:53:01.616Z,84.70
2017-05-19T13:55:29.972Z,84.70
2017-05-19T13:57:58.253Z,84.60
2017-05-19T14:00:26.800Z,85.00
2017-05-19T14:02:55.117Z,87.10
2017-05-19T14:05:23.400Z,84.60
2017-05-19T14:07:51.857Z,85.90
2017-05-19T14:10:20.233Z,85.00
2017-05-19T14:12:48.621Z,84.70
2017-05-19T14:15:18.284Z,83.40
2017-05-19T14:17:46.602Z,85.40
2017-05-19T14:20:14.888Z,83.60
2017-05-19T14:22:43.236Z,85.50
2017-05-19T14:25:11.512Z,85.70
2017-05-19T14:27:39.795Z,85.00
2017-05-19T14:30:08.130Z,84.80
2017-05-19T14:32:36.417Z,84.90
2017-05-19T14:35:04.700Z,85.40
2017-05-19T14:37:33.116Z,84.90
2017-05-19T14:40:01.397Z,85.40
2017-05-19T14:42:29.680Z,85.80
2017-05-19T14:44:57.993Z,85.60
2017-05-19T14:47:26.276Z,85.60
2017-05-19T14:49:54.589Z,84.30
2017-05-19T14:52:22.869Z,84.00
2017-05-19T14:54:51.175Z,83.90
2017-05-19T14:57:19.484Z,84.40
2017-05-19T14:59:47.770Z,83.20
2017-05-19T15:02:16.437Z,85.10
2017-05-19T15:04:44.720Z,84.40
2017-05-19T15:07:13.000Z,85.20
2017-05-19T15:09:41.412Z,85.90
2017-05-19T15:12:09.695Z,85.60
2017-05-19T15:14:37.979Z,86.50
2017-05-19T15:17:06.296Z,86.70
2017-05-19T15:19:34.612Z,87.20
2017-05-19T15:22:02.892Z,86.00
2017-05-19T15:24:31.203Z,86.50
2017-05-19T15:26:59.512Z,86.80
2017-05-19T15:29:27.792Z,87.00
2017-05-19T15:31:56.252Z,86.80
2017-05-19T15:34:24.536Z,87.90
2017-05-19T15:36:52.820Z,87.90
2017-05-19T15:39:21.306Z,87.50
2017-05-19T15:41:49.588Z,86.30
2017-05-19T15:44:17.949Z,85.90
2017-05-19T15:46:46.259Z,86.40
2017-05-19T15:49:14.598Z,84.50
2017-05-19T15:51:42.881Z,85.00
2017-05-19T15:54:11.168Z,87.20
2017-05-19T15:56:39.738Z,88.00
2017-05-19T15:59:08.113Z,89.10
2017-05-19T16:01:36.487Z,88.70
2017-05-19T16:04:04.871Z,88.80
2017-05-19T16:06:33.156Z,89.30
2017-05-19T16:09:01.437Z,90.40
2017-05-19T16:11:29.964Z,90.80
2017-05-19T16:13:58.288Z,90.90
2017-05-19T16:16:26.572Z,91.10
2017-05-19T16:18:55.832Z,90.90
2017-05-19T16:21:24.182Z,90.90
2017-05-19T16:23:52.508Z,90.90
2017-05-19T16:26:20.788Z,90.60
2017-05-19T16:28:49.072Z,90.90
2017-05-19T16:31:17.493Z,90.30
2017-05-19T16:33:45.776Z,90.30
2017-05-19T16:36:14.151Z,90.70
2017-05-19T16:38:42.629Z,90.70
2017-05-19T16:41:10.912Z,90.60
2017-05-19T16:43:39.194Z,90.50
2017-05-19T16:46:08.147Z,90.50
2017-05-19T16:48:36.532Z,90.30
2017-05-19T16:51:04.909Z,89.60
2017-05-19T16:53:33.215Z,89.40
2017-05-19T16:56:01.519Z,88.30
2017-05-19T16:58:29.803Z,88.50
2017-05-19T17:00:58.525Z,88.30
2017-05-19T17:03:26.809Z,88.30
2017-05-19T17:05:55.092Z,88.30
2017-05-19T17:08:23.411Z,88.50
2017-05-19T17:10:51.725Z,89.00
2017-05-19T17:13:20.008Z,87.20
2017-05-19T17:15:48.416Z,86.80
2017-05-19T17:18:16.752Z,86.60
2017-05-19T17:20:45.031Z,86.40
2017-05-19T17:23:13.784Z,86.00
2017-05-19T17:25:42.148Z,86.20
2017-05-19T17:28:10.427Z,85.30
2017-05-19T17:30:38.808Z,85.70
2017-05-19T17:33:07.188Z,85.00
2017-05-19T17:35:35.553Z,85.40
2017-05-19T17:38:04.136Z,85.50
2017-05-19T17:40:32.420Z,86.20
2017-05-19T17:43:00.888Z,85.90
2017-05-19T17:45:29.199Z,86.20
2017-05-19T17:47:57.520Z,86.80
2017-05-19T17:50:27.872Z,86.80
2017-05-19T17:52:56.453Z,87.70
2017-05-19T17:55:24.836Z,88.00
2017-05-19T17:57:53.122Z,87.90
2017-05-19T18:00:21.739Z,88.60
2017-05-19T18:02:50.083Z,89.10
2017-05-19T18:05:18.363Z,89.50
2017-05-19T18:07:47.044Z,90.10
2017-05-19T18:10:15.324Z,89.60
2017-05-19T18:12:43.792Z,89.50
2017-05-19T18:15:12.128Z,90.00
2017-05-19T18:17:40.411Z,90.00
2017-05-19T18:20:08.827Z,90.00
2017-05-19T18:22:37.420Z,90.20
2017-05-19T18:25:05.705Z,90.30
2017-05-19T18:27:33.989Z,90.30
2017-05-19T18:30:02.312Z,90.30
2017-05-19T18:32:30.629Z,90.30
2017-05-19T18:34:58.913Z,90.40
2017-05-19T18:37:27.380Z,90.40
2017-05-19T18:39:55.660Z,90.50
2017-05-19T18:42:24.120Z,90.80
2017-05-19T18:44:52.404Z,91.10
2017-05-19T18:47:20.768Z,91.30
2017-05-19T18:49:49.240Z,91.60
2017-05-19T18:52:17.774Z,92.00
2017-05-19T18:54:47.273Z,92.40
2017-05-19T18:57:16.281Z,92.00
2017-05-19T18:59:44.872Z,92.00
2017-05-19T19:02:13.455Z,91.90
2017-05-19T19:04:42.447Z,91.90
2017-05-19T19:07:11.134Z,92.10
2017-05-19T19:09:39.738Z,92.40
2017-05-19T19:12:08.425Z,92.40
2017-05-19T19:14:37.008Z,92.40
2017-05-19T19:17:05.840Z,92.50
2017-05-19T19:19:34.252Z,92.60
2017-05-19T19:22:02.631Z,92.50
2017-05-19T19:24:31.024Z,92.40
2017-05-19T19:26:59.321Z,92.40
2017-05-19T19:29:27.613Z,92.60
2017-05-19T19:31:56.383Z,92.70
2017-05-19T19:34:24.792Z,92.70
2017-05-19T19:36:53.273Z,92.90
2017-05-19T19:39:22.435Z,93.20
2017-05-19T19:41:50.745Z,93.20
2017-05-19T19:44:19.029Z,93.30
2017-05-19T19:46:47.369Z,93.40
2017-05-19T19:49:15.676Z,93.40
2017-05-19T19:51:44.048Z,93.40
2017-05-19T19:54:12.369Z,93.50
2017-05-19T19:56:40.709Z,93.60
2017-05-19T19:59:09.052Z,93.70
2017-05-19T20:01:37.399Z,93.80
2017-05-19T20:04:05.696Z,93.90
2017-05-19T20:06:34.040Z,93.90
2017-05-19T20:09:02.421Z,93.80
2017-05-19T20:11:30.795Z,94.00
2017-05-19T20:13:59.108Z,93.90
2017-05-19T20:16:27.392Z,93.90
2017-05-19T20:18:55.730Z,93.90
2017-05-19T20:21:24.035Z,93.90
2017-05-19T20:23:52.312Z,93.70
2017-05-19T20:26:20.626Z,93.80
2017-05-19T20:28:49.315Z,93.80
2017-05-19T20:31:17.693Z,93.90
2017-05-19T20:33:46.003Z,94.10
2017-05-19T20:36:14.345Z,94.30
2017-05-19T20:38:42.935Z,94.20
2017-05-19T20:41:11.309Z,94.30
2017-05-19T20:43:39.593Z,94.30
2017-05-19T20:46:07.975Z,94.50
2017-05-19T20:48:36.305Z,94.40
2017-05-19T20:51:04.629Z,94.50
2017-05-19T20:53:33.008Z,94.50
2017-05-19T20:56:01.323Z,94.60
2017-05-19T20:58:29.644Z,94.60
2017-05-19T21:00:57.924Z,94.70
2017-05-19T21:03:26.289Z,94.70
2017-05-19T21:05:54.601Z,94.70
2017-05-19T21:08:22.908Z,94.70
2017-05-19T21:10:51.457Z,94.80
2017-05-19T21:13:19.745Z,94.80
2017-05-19T21:15:48.112Z,94.80
2017-05-19T21:18:16.905Z,94.90
2017-05-19T21:20:45.187Z,94.70
2017-05-19T21:23:13.464Z,94.80
2017-05-19T21:25:42.137Z,94.90
2017-05-19T21:28:10.516Z,94.80
2017-05-19T21:30:38.896Z,94.60
2017-05-19T21:33:07.280Z,94.70
2017-05-19T21:35:35.652Z,94.70
2017-05-19T21:38:04.039Z,94.60
2017-05-19T21:40:32.412Z,94.50
2017-05-19T21:43:00.692Z,94.00
2017-05-19T21:45:29.077Z,93.90
2017-05-19T21:47:57.388Z,93.80
2017-05-19T21:50:25.729Z,93.70
2017-05-19T21:52:54.039Z,93.70
2017-05-19T21:55:22.353Z,93.70
2017-05-19T21:57:50.657Z,93.70
2017-05-19T22:00:19.344Z,93.70
2017-05-19T22:02:47.624Z,93.70
2017-05-19T22:05:16.000Z,93.70
2017-05-19T22:07:44.308Z,93.80
2017-05-19T22:10:12.618Z,93.50
2017-05-19T22:12:40.901Z,93.50
2017-05-19T22:15:09.309Z,93.00
2017-05-19T22:17:38.112Z,92.70
2017-05-19T22:20:06.391Z,92.60
2017-05-19T22:22:34.668Z,92.50
2017-05-19T22:25:02.980Z,92.40
2017-05-19T22:27:31.274Z,92.50
2017-05-19T22:29:59.645Z,92.10
2017-05-19T22:32:28.357Z,92.40
2017-05-19T22:34:56.709Z,92.40
2017-05-19T22:37:24.994Z,92.50
2017-05-19T22:39:53.471Z,92.60
2017-05-19T22:42:21.949Z,92.60
2017-05-19T22:44:50.233Z,92.60
2017-05-19T22:47:18.555Z,92.70
2017-05-19T22:49:46.851Z,92.60
2017-05-19T22:52:15.167Z,92.50
2017-05-19T22:54:43.544Z,92.50
2017-05-19T22:57:11.832Z,92.40
2017-05-19T22:59:40.111Z,92.30
2017-05-19T23:02:09.493Z,92.70
2017-05-19T23:04:37.877Z,92.50
2017-05-19T23:07:06.159Z,92.40
2017-05-19T23:09:34.572Z,92.60
2017-05-19T23:12:02.851Z,92.50
2017-05-19T23:14:31.132Z,92.50
2017-05-19T23:16:59.451Z,92.50
2017-05-19T23:19:27.836Z,92.60
2017-05-19T23:21:56.216Z,92.60
2017-05-19T23:24:24.598Z,92.50
2017-05-19T23:26:52.972Z,92.50
2017-05-19T23:29:21.253Z,92.30
2017-05-19T23:31:49.628Z,92.40
2017-05-19T23:34:18.013Z,92.40
2017-05-19T23:36:46.387Z,92.30
2017-05-19T23:39:14.759Z,92.40
2017-05-19T23:41:43.041Z,92.60
2017-05-19T23:44:11.349Z,92.50
2017-05-19T23:46:39.683Z,92.40
2017-05-19T23:49:07.981Z,92.20
2017-05-19T23:51:36.274Z,92.30
2017-05-19T23:54:04.640Z,92.30
2017-05-19T23:56:33.014Z,92.30
2017-05-19T23:59:01.320Z,92.30
